Hlavní strana
METAR-TAF:

METAR-TAF

Letiště :

Whitehorse, Yukon, Kanada

zeměpisná šířka: 60-43N, zeměpisná délka: 135-04W, výška: 703 m

Aktuální stav počasí

Zpráva byla vytvořena před 27 minutami, v 23:00 UTC
Jihojihovýchodní vítr 11 kt s nárazy do 17 kt, proměnlivý mezi jihojihovýchodním a jihozápadním
Teplota 10°C
Vlhkost vzduchu 40%
Tlak 1010 hPa
Viditelnost: 64.4 km
Polojasno ve výšce 6500 ft
Polojasno ve výšce 16000 ft
Oblačno až skoro zataženo ve výšce 22000 ft

METAR: CYXY 202300Z 16011G17KT 150V230 40SM SCT065 SCT160 BKN220 10/M03 A2983 RMK SC3AC1CI1 SLP129 DENSITY ALT 2400FT

Čas: 16:27 (23:27 UTC)

Předpověď počasí

Zpráva byla vytvořena před 5 hodinami a 49 minutami, v 17:38 UTC
Předpověď platná od 20 v 18 UTC do 21 v 06 UTC
Jihojihovýchodní vítr 10 kt
Viditelnost: 10 km
Skoro jasno ve výšce 6000 ft
Změna
od 20 v 18 UTC do 20 v 20 UTC
Jižní vítr 15 kt s nárazy do 25 kt

TAF: CYXY 201738Z 2018/2106 16010KT P6SM FEW060 BECMG 2018/2020 18015G25KT RMK NXT FCST BY 210000Z

Stav a předpovědi počasí z více než 4 000 letišť (zprávy METAR a TAF).

Červené a žluté tečky na mapě představují dostupné meteorologické stanice.

Když kurzor umístíte na tečku, zobrazí se název stanice.

Pak kliknutím zobrazíte stav a předpověď počasí.

Chcete-li změnit mapu, kliknutím na zelené tlačítko se znaménkem +mapu přiblížíte, kliknutím na zelené tlačítko se znaménkem – mapu oddálíte a kliknutím na zelené šipky přejdete na sousední mapy.


METAR-TAF: